Alexandria, Nebraska
Current Conditions -  °F | °C
As of 2:35 PM on Saturday 20 Dec 2014 (Local Time) from KHJH Reporting Station
Clear Clear  
Wind Chill: 38°   Ceiling: Unl
Heat Index: 38°   Visibility: 10mi
Dew Point: 36°   Wind: 3mph
Humidity: 91%   Direction: 190°S
Pressure: 30.02"   Gusts: NA
Location:  40.25°N, 97.39°W
Report Text: KHJH 202035Z AUTO 19003KT 10SM CLR 04/02 A3002 RMK AO2 T00360022
Loading
Personal Weather Stations






























Interactive Weather Map New forecast layout! Learn more

10-Day Weather Forecast

Advertisements
Track Severe Weather on mobile